sensor_id;sensor_type;location;lat;lon;timestamp;pressure;altitude;pressure_sealevel;temperature;humidity
75747;BME280;70632;52.232;21.038;2024-03-22T02:13:16;61949.06;;;-147.36;100.00
75747;BME280;70632;52.232;21.038;2024-03-22T08:26:03;100301.66;;;8.65;83.56
75747;BME280;70632;52.232;21.038;2024-03-22T08:28:31;100307.28;;;8.62;82.79
75747;BME280;70632;52.232;21.038;2024-03-22T08:30:56;100305.56;;;8.61;82.90
75747;BME280;70632;52.232;21.038;2024-03-22T08:33:22;100302.16;;;8.71;81.52
75747;BME280;70632;52.232;21.038;2024-03-22T08:35:48;100309.31;;;8.72;82.45
75747;BME280;70632;52.232;21.038;2024-03-22T08:38:14;100313.06;;;8.69;80.70
75747;BME280;70632;52.232;21.038;2024-03-22T08:40:40;100302.63;;;8.64;80.88
75747;BME280;70632;52.232;21.038;2024-03-22T08:43:06;100310.06;;;8.61;80.61
75747;BME280;70632;52.232;21.038;2024-03-22T08:45:34;100309.13;;;8.62;80.96
75747;BME280;70632;52.232;21.038;2024-03-22T08:48:01;100307.72;;;8.56;80.94
75747;BME280;70632;52.232;21.038;2024-03-22T08:50:27;100303.41;;;8.54;81.39
75747;BME280;70632;52.232;21.038;2024-03-22T08:52:52;100307.81;;;8.55;81.26
75747;BME280;70632;52.232;21.038;2024-03-22T08:55:18;100309.97;;;8.62;81.92
75747;BME280;70632;52.232;21.038;2024-03-22T08:57:44;100301.88;;;8.62;81.60
75747;BME280;70632;52.232;21.038;2024-03-22T09:00:10;100303.16;;;8.70;81.11
75747;BME280;70632;52.232;21.038;2024-03-22T09:02:36;100314.19;;;8.66;80.87
75747;BME280;70632;52.232;21.038;2024-03-22T09:05:04;100301.66;;;8.65;81.29
75747;BME280;70632;52.232;21.038;2024-03-22T09:07:30;100302.84;;;8.61;81.82
75747;BME280;70632;52.232;21.038;2024-03-22T09:09:56;100296.25;;;8.65;81.73
75747;BME280;70632;52.232;21.038;2024-03-22T09:12:21;100299.69;;;8.68;81.78
75747;BME280;70632;52.232;21.038;2024-03-22T09:14:47;100299.00;;;8.77;81.22
75747;BME280;70632;52.232;21.038;2024-03-22T09:17:13;100292.75;;;8.76;81.16
75747;BME280;70632;52.232;21.038;2024-03-22T09:19:39;100288.31;;;8.75;80.87
75747;BME280;70632;52.232;21.038;2024-03-22T09:22:05;100302.47;;;8.79;81.08
75747;BME280;70632;52.232;21.038;2024-03-22T09:24:31;100308.09;;;8.76;81.45
75747;BME280;70632;52.232;21.038;2024-03-22T09:26:56;100307.88;;;8.79;79.86
75747;BME280;70632;52.232;21.038;2024-03-22T09:29:23;100286.25;;;8.79;81.07
75747;BME280;70632;52.232;21.038;2024-03-22T09:31:49;100285.50;;;8.77;81.71
75747;BME280;70632;52.232;21.038;2024-03-22T09:34:16;100287.09;;;8.79;82.23
75747;BME280;70632;52.232;21.038;2024-03-22T09:36:42;100285.56;;;8.88;81.38
75747;BME280;70632;52.232;21.038;2024-03-22T09:39:08;100286.81;;;8.95;80.24
75747;BME280;70632;52.232;21.038;2024-03-22T09:41:39;100286.59;;;8.98;79.10
75747;BME280;70632;52.232;21.038;2024-03-22T09:44:08;100285.56;;;8.88;80.00
75747;BME280;70632;52.232;21.038;2024-03-22T09:46:39;100279.53;;;8.84;79.74
75747;BME280;70632;52.232;21.038;2024-03-22T09:49:06;100286.06;;;8.93;80.19
75747;BME280;70632;52.232;21.038;2024-03-22T09:51:33;100287.06;;;8.92;80.80
75747;BME280;70632;52.232;21.038;2024-03-22T09:54:00;100272.56;;;8.93;80.55
75747;BME280;70632;52.232;21.038;2024-03-22T09:56:28;100266.19;;;8.94;81.16
75747;BME280;70632;52.232;21.038;2024-03-22T09:58:55;100265.19;;;8.95;80.96
75747;BME280;70632;52.232;21.038;2024-03-22T10:01:22;100270.50;;;8.97;80.51
75747;BME280;70632;52.232;21.038;2024-03-22T10:03:48;100271.88;;;9.02;81.00
75747;BME280;70632;52.232;21.038;2024-03-22T10:06:14;100271.16;;;9.12;80.49
75747;BME280;70632;52.232;21.038;2024-03-22T10:08:40;100259.25;;;9.14;80.60
75747;BME280;70632;52.232;21.038;2024-03-22T10:11:06;100260.44;;;9.10;80.71
75747;BME280;70632;52.232;21.038;2024-03-22T10:13:31;100253.44;;;9.07;80.72
75747;BME280;70632;52.232;21.038;2024-03-22T10:16:00;100253.41;;;8.96;81.09
75747;BME280;70632;52.232;21.038;2024-03-22T10:18:26;100255.81;;;8.88;82.17
75747;BME280;70632;52.232;21.038;2024-03-22T10:21:02;100248.56;;;8.89;82.40
75747;BME280;70632;52.232;21.038;2024-03-22T10:23:29;100244.25;;;8.86;83.60
75747;BME280;70632;52.232;21.038;2024-03-22T10:25:59;100250.63;;;8.85;83.93
75747;BME280;70632;52.232;21.038;2024-03-22T10:28:25;100252.84;;;8.80;84.04
75747;BME280;70632;52.232;21.038;2024-03-22T10:30:52;100247.00;;;8.73;85.14
75747;BME280;70632;52.232;21.038;2024-03-22T10:33:19;100244.66;;;8.69;85.84
75747;BME280;70632;52.232;21.038;2024-03-22T10:35:46;100247.59;;;8.65;86.76
75747;BME280;70632;52.232;21.038;2024-03-22T10:38:12;100242.31;;;8.64;87.20
75747;BME280;70632;52.232;21.038;2024-03-22T10:40:40;100247.59;;;8.65;87.49
75747;BME280;70632;52.232;21.038;2024-03-22T10:43:09;100246.16;;;8.73;87.43
75747;BME280;70632;52.232;21.038;2024-03-22T10:45:35;100232.16;;;8.79;86.40
75747;BME280;70632;52.232;21.038;2024-03-22T10:48:05;100239.13;;;8.70;86.70
75747;BME280;70632;52.232;21.038;2024-03-22T10:50:34;100240.44;;;8.64;87.38
75747;BME280;70632;52.232;21.038;2024-03-22T10:53:06;100235.50;;;8.58;87.90
75747;BME280;70632;52.232;21.038;2024-03-22T10:55:36;100239.66;;;8.51;88.90
75747;BME280;70632;52.232;21.038;2024-03-22T10:58:03;100229.91;;;8.49;88.67
75747;BME280;70632;52.232;21.038;2024-03-22T11:00:34;100226.47;;;8.46;89.19
75747;BME280;70632;52.232;21.038;2024-03-22T11:03:04;100223.91;;;8.45;89.42
75747;BME280;70632;52.232;21.038;2024-03-22T11:05:30;100217.41;;;8.48;89.48
75747;BME280;70632;52.232;21.038;2024-03-22T11:08:05;100224.31;;;8.39;89.69
75747;BME280;70632;52.232;21.038;2024-03-22T11:10:35;100226.38;;;8.35;88.94
75747;BME280;70632;52.232;21.038;2024-03-22T11:13:01;100205.72;;;8.47;89.32
75747;BME280;70632;52.232;21.038;2024-03-22T11:15:31;100205.13;;;8.55;88.15
75747;BME280;70632;52.232;21.038;2024-03-22T11:17:59;100201.06;;;8.73;87.73
75747;BME280;70632;52.232;21.038;2024-03-22T11:20:26;100205.31;;;8.89;86.70
75747;BME280;70632;52.232;21.038;2024-03-22T11:22:52;100208.28;;;8.97;86.12
75747;BME280;70632;52.232;21.038;2024-03-22T11:25:18;100198.88;;;9.02;84.32
75747;BME280;70632;52.232;21.038;2024-03-22T11:27:48;100196.63;;;8.96;84.32
75747;BME280;70632;52.232;21.038;2024-03-22T11:30:15;100195.06;;;9.05;84.23
75747;BME280;70632;52.232;21.038;2024-03-22T11:32:41;100194.19;;;9.04;83.66
75747;BME280;70632;52.232;21.038;2024-03-22T11:35:14;100189.00;;;9.01;83.53
75747;BME280;70632;52.232;21.038;2024-03-22T11:37:39;100187.91;;;9.04;82.70
75747;BME280;70632;52.232;21.038;2024-03-22T11:40:08;100185.84;;;9.07;83.63
75747;BME280;70632;52.232;21.038;2024-03-22T11:42:40;100182.03;;;9.10;83.12
75747;BME280;70632;52.232;21.038;2024-03-22T11:45:08;100174.09;;;8.96;82.20
75747;BME280;70632;52.232;21.038;2024-03-22T11:47:35;100178.16;;;8.90;82.89
75747;BME280;70632;52.232;21.038;2024-03-22T11:50:01;100174.09;;;8.96;83.13
75747;BME280;70632;52.232;21.038;2024-03-22T11:52:27;100175.69;;;8.87;83.18
75747;BME280;70632;52.232;21.038;2024-03-22T11:54:53;100176.03;;;8.82;83.31
75747;BME280;70632;52.232;21.038;2024-03-22T11:57:20;100169.31;;;8.88;83.10
75747;BME280;70632;52.232;21.038;2024-03-22T11:59:46;100177.81;;;8.95;80.45
75747;BME280;70632;52.232;21.038;2024-03-22T12:02:12;100176.69;;;8.97;80.59
75747;BME280;70632;52.232;21.038;2024-03-22T12:04:46;100171.78;;;8.91;78.45
75747;BME280;70632;52.232;21.038;2024-03-22T12:07:16;100167.84;;;8.95;78.81
75747;BME280;70632;52.232;21.038;2024-03-22T12:09:43;100156.09;;;9.07;79.25
75747;BME280;70632;52.232;21.038;2024-03-22T12:12:11;100161.28;;;9.22;78.68
75747;BME280;70632;52.232;21.038;2024-03-22T12:14:38;100159.09;;;9.27;78.74
75747;BME280;70632;52.232;21.038;2024-03-22T12:17:04;100166.72;;;9.33;77.84
75747;BME280;70632;52.232;21.038;2024-03-22T12:19:31;100161.06;;;9.25;77.88
75747;BME280;70632;52.232;21.038;2024-03-22T12:21:56;100160.31;;;9.23;78.28
75747;BME280;70632;52.232;21.038;2024-03-22T12:24:23;100155.38;;;9.17;78.44
75747;BME280;70632;52.232;21.038;2024-03-22T12:26:49;100155.13;;;9.20;78.46
75747;BME280;70632;52.232;21.038;2024-03-22T12:29:16;100138.91;;;9.20;78.24
75747;BME280;70632;52.232;21.038;2024-03-22T12:31:42;100143.34;;;9.21;78.66
75747;BME280;70632;52.232;21.038;2024-03-22T12:34:08;100136.34;;;9.30;78.15
75747;BME280;70632;52.232;21.038;2024-03-22T12:36:34;100138.31;;;9.39;77.29
75747;BME280;70632;52.232;21.038;2024-03-22T12:39:00;100131.31;;;9.48;77.69
75747;BME280;70632;52.232;21.038;2024-03-22T12:41:27;100127.13;;;9.43;77.13
75747;BME280;70632;52.232;21.038;2024-03-22T12:43:55;100115.56;;;9.30;77.36
75747;BME280;70632;52.232;21.038;2024-03-22T12:46:21;100120.00;;;9.31;77.31
75747;BME280;70632;52.232;21.038;2024-03-22T12:48:47;100118.88;;;9.34;77.18
75747;BME280;70632;52.232;21.038;2024-03-22T12:51:12;100106.97;;;9.48;77.43
75747;BME280;70632;52.232;21.038;2024-03-22T12:53:38;100105.59;;;9.42;76.12
75747;BME280;70632;52.232;21.038;2024-03-22T12:56:04;100106.84;;;9.38;76.16
75747;BME280;70632;52.232;21.038;2024-03-22T12:58:33;100105.25;;;9.35;76.50
75747;BME280;70632;52.232;21.038;2024-03-22T13:00:58;100096.13;;;9.36;76.31
75747;BME280;70632;52.232;21.038;2024-03-22T13:03:28;100086.06;;;9.27;75.05
75747;BME280;70632;52.232;21.038;2024-03-22T13:05:54;100085.78;;;9.30;74.87
75747;BME280;70632;52.232;21.038;2024-03-22T13:08:20;100107.22;;;9.33;75.10
75747;BME280;70632;52.232;21.038;2024-03-22T13:10:46;100101.91;;;9.32;75.12
75747;BME280;70632;52.232;21.038;2024-03-22T13:13:12;100097.97;;;9.36;75.27
75747;BME280;70632;52.232;21.038;2024-03-22T13:15:41;100092.06;;;9.42;75.53
75747;BME280;70632;52.232;21.038;2024-03-22T13:18:07;100089.34;;;9.53;74.51
75747;BME280;70632;52.232;21.038;2024-03-22T13:20:37;100088.13;;;9.57;74.61
75747;BME280;70632;52.232;21.038;2024-03-22T13:23:03;100083.22;;;9.51;75.25
75747;BME280;70632;52.232;21.038;2024-03-22T13:25:28;100083.09;;;9.53;75.22
75747;BME280;70632;52.232;21.038;2024-03-22T13:27:54;100087.75;;;9.51;75.09
75747;BME280;70632;52.232;21.038;2024-03-22T13:30:20;100070.69;;;9.50;75.48
75747;BME280;70632;52.232;21.038;2024-03-22T13:32:47;100068.94;;;9.49;75.25
75747;BME280;70632;52.232;21.038;2024-03-22T13:35:13;100065.63;;;9.57;75.72
75747;BME280;70632;52.232;21.038;2024-03-22T13:37:41;100057.72;;;9.65;75.59
75747;BME280;70632;52.232;21.038;2024-03-22T13:40:07;100050.69;;;9.74;75.80
75747;BME280;70632;52.232;21.038;2024-03-22T13:42:33;100057.22;;;9.82;74.92
75747;BME280;70632;52.232;21.038;2024-03-22T13:44:59;100054.16;;;9.76;75.33
75747;BME280;70632;52.232;21.038;2024-03-22T13:47:26;100053.28;;;9.75;75.35
75747;BME280;70632;52.232;21.038;2024-03-22T13:49:53;100037.41;;;9.82;75.07
75747;BME280;70632;52.232;21.038;2024-03-22T13:52:20;100047.88;;;9.86;74.77
75747;BME280;70632;52.232;21.038;2024-03-22T13:54:46;100040.31;;;9.90;74.76
75747;BME280;70632;52.232;21.038;2024-03-22T13:57:13;100031.47;;;9.88;74.98
75747;BME280;70632;52.232;21.038;2024-03-22T13:59:38;100035.41;;;9.84;75.46
75747;BME280;70632;52.232;21.038;2024-03-22T14:02:06;100023.75;;;9.83;75.09
75747;BME280;70632;52.232;21.038;2024-03-22T14:04:33;100030.63;;;9.87;75.40
75747;BME280;70632;52.232;21.038;2024-03-22T14:06:59;100029.66;;;9.89;74.86
75747;BME280;70632;52.232;21.038;2024-03-22T14:09:24;100021.53;;;9.89;75.31
75747;BME280;70632;52.232;21.038;2024-03-22T14:11:51;100020.78;;;9.86;75.67
75747;BME280;70632;52.232;21.038;2024-03-22T14:14:18;100006.38;;;9.86;75.04
75747;BME280;70632;52.232;21.038;2024-03-22T14:16:44;100017.34;;;9.84;74.95
75747;BME280;70632;52.232;21.038;2024-03-22T14:19:10;100004.78;;;9.83;74.40
75747;BME280;70632;52.232;21.038;2024-03-22T14:21:36;100002.94;;;9.84;74.74
75747;BME280;70632;52.232;21.038;2024-03-22T14:24:04;100007.84;;;9.90;75.10
75747;BME280;70632;52.232;21.038;2024-03-22T14:26:30;99999.88;;;9.89;74.45
75747;BME280;70632;52.232;21.038;2024-03-22T14:28:56;99996.16;;;9.90;74.82
75747;BME280;70632;52.232;21.038;2024-03-22T14:31:21;99991.59;;;9.90;75.37
75747;BME280;70632;52.232;21.038;2024-03-22T14:33:47;99987.63;;;9.94;74.10
75747;BME280;70632;52.232;21.038;2024-03-22T14:36:13;99990.22;;;9.96;74.66
75747;BME280;70632;52.232;21.038;2024-03-22T14:38:39;99989.38;;;9.95;74.27
75747;BME280;70632;52.232;21.038;2024-03-22T14:41:06;99993.44;;;9.90;73.73
75747;BME280;70632;52.232;21.038;2024-03-22T14:43:31;99978.31;;;9.87;74.10
75747;BME280;70632;52.232;21.038;2024-03-22T14:46:01;99977.06;;;9.91;74.50
75747;BME280;70632;52.232;21.038;2024-03-22T14:48:28;99977.06;;;9.91;74.25
75747;BME280;70632;52.232;21.038;2024-03-22T14:50:54;99976.22;;;9.91;74.30
75747;BME280;70632;52.232;21.038;2024-03-22T14:53:20;99973.38;;;9.92;74.67
75747;BME280;70632;52.232;21.038;2024-03-22T14:55:58;99963.66;;;9.90;74.96
75747;BME280;70632;52.232;21.038;2024-03-22T14:58:25;99968.09;;;9.91;74.78
75747;BME280;70632;52.232;21.038;2024-03-22T15:00:56;99949.16;;;9.91;74.79
75747;BME280;70632;52.232;21.038;2024-03-22T15:03:22;99932.75;;;9.92;74.82
75747;BME280;70632;52.232;21.038;2024-03-22T15:05:55;99945.19;;;9.95;75.09
75747;BME280;70632;52.232;21.038;2024-03-22T15:08:22;99927.81;;;9.97;75.01
75747;BME280;70632;52.232;21.038;2024-03-22T15:10:49;99925.84;;;9.99;74.57
75747;BME280;70632;52.232;21.038;2024-03-22T15:13:16;99931.25;;;9.99;74.27
75747;BME280;70632;52.232;21.038;2024-03-22T15:15:43;99930.97;;;10.02;75.01
75747;BME280;70632;52.232;21.038;2024-03-22T15:18:16;99920.75;;;10.06;74.26
75747;BME280;70632;52.232;21.038;2024-03-22T15:20:42;99927.69;;;9.99;76.11
75747;BME280;70632;52.232;21.038;2024-03-22T15:23:08;99922.91;;;9.91;75.89
75747;BME280;70632;52.232;21.038;2024-03-22T15:25:34;99930.44;;;9.87;76.82
75747;BME280;70632;52.232;21.038;2024-03-22T15:28:00;99918.47;;;9.90;76.37
75747;BME280;70632;52.232;21.038;2024-03-22T15:30:26;99919.47;;;9.89;76.32
75747;BME280;70632;52.232;21.038;2024-03-22T15:32:52;99928.84;;;9.85;76.66
75747;BME280;70632;52.232;21.038;2024-03-22T15:35:20;99926.13;;;9.85;77.09
75747;BME280;70632;52.232;21.038;2024-03-22T15:37:46;99920.63;;;9.75;76.40
75747;BME280;70632;52.232;21.038;2024-03-22T15:40:14;99907.94;;;9.76;75.56
75747;BME280;70632;52.232;21.038;2024-03-22T15:42:39;99921.03;;;9.71;76.02
75747;BME280;70632;52.232;21.038;2024-03-22T15:45:06;99905.75;;;9.70;76.80
75747;BME280;70632;52.232;21.038;2024-03-22T15:47:32;99907.50;;;9.71;76.47
75747;BME280;70632;52.232;21.038;2024-03-22T15:49:58;99913.88;;;9.70;76.89
75747;BME280;70632;52.232;21.038;2024-03-22T15:52:24;99907.38;;;9.72;75.34
75747;BME280;70632;52.232;21.038;2024-03-22T15:54:51;99902.69;;;9.74;76.57
75747;BME280;70632;52.232;21.038;2024-03-22T15:57:19;99897.13;;;9.76;75.93
75747;BME280;70632;52.232;21.038;2024-03-22T15:59:45;99882.00;;;9.73;76.30
75747;BME280;70632;52.232;21.038;2024-03-22T16:02:11;99887.41;;;9.73;76.00
75747;BME280;70632;52.232;21.038;2024-03-22T16:04:37;99886.69;;;9.71;76.45
75747;BME280;70632;52.232;21.038;2024-03-22T16:07:04;99871.19;;;9.73;75.92
75747;BME280;70632;52.232;21.038;2024-03-22T16:09:30;99870.00;;;9.66;76.32
75747;BME280;70632;52.232;21.038;2024-03-22T16:11:56;99878.97;;;9.66;77.39
75747;BME280;70632;52.232;21.038;2024-03-22T16:14:22;99873.69;;;9.65;77.28
75747;BME280;70632;52.232;21.038;2024-03-22T16:16:48;99865.56;;;9.65;77.10
75747;BME280;70632;52.232;21.038;2024-03-22T16:19:14;99874.69;;;9.64;77.25
75747;BME280;70632;52.232;21.038;2024-03-22T16:21:39;99869.09;;;9.65;78.00
75747;BME280;70632;52.232;21.038;2024-03-22T16:24:05;99858.16;;;9.67;77.69
75747;BME280;70632;52.232;21.038;2024-03-22T16:26:31;99846.88;;;9.62;78.67
75747;BME280;70632;52.232;21.038;2024-03-22T16:28:57;99846.00;;;9.61;77.82
75747;BME280;70632;52.232;21.038;2024-03-22T16:31:24;99853.38;;;9.59;78.30
75747;BME280;70632;52.232;21.038;2024-03-22T16:33:50;99846.16;;;9.60;79.13
75747;BME280;70632;52.232;21.038;2024-03-22T16:36:16;99843.16;;;9.63;78.39
75747;BME280;70632;52.232;21.038;2024-03-22T16:38:42;99850.88;;;9.67;77.93
75747;BME280;70632;52.232;21.038;2024-03-22T16:41:08;99852.03;;;9.65;78.06
75747;BME280;70632;52.232;21.038;2024-03-22T16:43:34;99858.16;;;9.67;78.18
75747;BME280;70632;52.232;21.038;2024-03-22T16:46:00;99849.19;;;9.66;77.97
75747;BME280;70632;52.232;21.038;2024-03-22T16:48:28;99870.00;;;9.66;77.65
75747;BME280;70632;52.232;21.038;2024-03-22T16:50:54;99857.44;;;9.65;78.86
75747;BME280;70632;52.232;21.038;2024-03-22T16:53:23;99849.72;;;9.60;78.44
75747;BME280;70632;52.232;21.038;2024-03-22T16:55:49;99849.31;;;9.65;78.86
75747;BME280;70632;52.232;21.038;2024-03-22T16:58:18;99854.00;;;9.63;78.48
75747;BME280;70632;52.232;21.038;2024-03-22T17:00:44;99871.69;;;9.67;78.95
75747;BME280;70632;52.232;21.038;2024-03-22T17:03:10;99854.84;;;9.63;79.10
75747;BME280;70632;52.232;21.038;2024-03-22T17:05:36;99836.06;;;9.62;78.85
75747;BME280;70632;52.232;21.038;2024-03-22T17:08:02;99840.75;;;9.60;79.51
75747;BME280;70632;52.232;21.038;2024-03-22T17:10:28;99846.88;;;9.62;79.77
75747;BME280;70632;52.232;21.038;2024-03-22T17:12:53;99834.94;;;9.64;79.01
75747;BME280;70632;52.232;21.038;2024-03-22T17:15:19;99843.78;;;9.66;78.77
75747;BME280;70632;52.232;21.038;2024-03-22T17:17:45;99835.53;;;9.68;79.69
75747;BME280;70632;52.232;21.038;2024-03-22T17:20:11;99841.53;;;9.72;78.86
75747;BME280;70632;52.232;21.038;2024-03-22T17:22:40;99840.66;;;9.71;79.33
75747;BME280;70632;52.232;21.038;2024-03-22T17:25:06;99830.44;;;9.75;78.95
75747;BME280;70632;52.232;21.038;2024-03-22T17:27:33;99831.56;;;9.72;78.94
75747;BME280;70632;52.232;21.038;2024-03-22T17:29:58;99820.47;;;9.75;78.86
75747;BME280;70632;52.232;21.038;2024-03-22T17:32:24;99818.91;;;9.73;79.49
75747;BME280;70632;52.232;21.038;2024-03-22T17:34:51;99806.50;;;9.70;79.12
75747;BME280;70632;52.232;21.038;2024-03-22T17:37:17;99801.81;;;9.72;79.49
75747;BME280;70632;52.232;21.038;2024-03-22T17:39:43;99817.03;;;9.73;79.68
75747;BME280;70632;52.232;21.038;2024-03-22T17:42:09;99807.34;;;9.71;80.07
75747;BME280;70632;52.232;21.038;2024-03-22T17:44:37;99808.19;;;9.71;79.52
75747;BME280;70632;52.232;21.038;2024-03-22T17:47:03;99808.78;;;9.75;79.69
75747;BME280;70632;52.232;21.038;2024-03-22T17:49:29;99802.53;;;9.74;79.24
75747;BME280;70632;52.232;21.038;2024-03-22T17:51:55;99792.06;;;9.70;79.43
75747;BME280;70632;52.232;21.038;2024-03-22T17:54:21;99790.38;;;9.69;79.53
75747;BME280;70632;52.232;21.038;2024-03-22T17:56:48;99797.25;;;9.73;78.71
75747;BME280;70632;52.232;21.038;2024-03-22T17:59:17;99787.38;;;9.72;79.57
75747;BME280;70632;52.232;21.038;2024-03-22T18:01:42;99786.53;;;9.71;79.27
75747;BME280;70632;52.232;21.038;2024-03-22T18:04:10;99785.56;;;9.72;78.88
75747;BME280;70632;52.232;21.038;2024-03-22T18:06:37;99787.38;;;9.72;78.96
75747;BME280;70632;52.232;21.038;2024-03-22T18:09:02;99778.41;;;9.71;79.60
75747;BME280;70632;52.232;21.038;2024-03-22T18:11:28;99792.66;;;9.73;79.24
75747;BME280;70632;52.232;21.038;2024-03-22T18:13:54;99794.41;;;9.74;78.97
75747;BME280;70632;52.232;21.038;2024-03-22T18:16:20;99787.25;;;9.73;79.18
75747;BME280;70632;52.232;21.038;2024-03-22T18:18:46;99782.44;;;9.77;79.00
75747;BME280;70632;52.232;21.038;2024-03-22T18:21:12;99779.88;;;9.75;78.52
75747;BME280;70632;52.232;21.038;2024-03-22T18:23:38;99786.28;;;9.74;78.43
75747;BME280;70632;52.232;21.038;2024-03-22T18:26:06;99778.00;;;9.76;78.14
75747;BME280;70632;52.232;21.038;2024-03-22T18:28:31;99784.88;;;9.80;77.43
75747;BME280;70632;52.232;21.038;2024-03-22T18:30:57;99791.91;;;9.82;77.72
75747;BME280;70632;52.232;21.038;2024-03-22T18:33:23;99786.59;;;9.81;77.03
75747;BME280;70632;52.232;21.038;2024-03-22T18:35:49;99776.09;;;9.87;77.35
75747;BME280;70632;52.232;21.038;2024-03-22T18:38:15;99768.09;;;9.86;76.29
75747;BME280;70632;52.232;21.038;2024-03-22T18:40:41;99759.84;;;9.87;76.11
75747;BME280;70632;52.232;21.038;2024-03-22T18:43:07;99758.41;;;9.83;76.36
75747;BME280;70632;52.232;21.038;2024-03-22T18:45:33;99762.69;;;9.86;75.21
75747;BME280;70632;52.232;21.038;2024-03-22T18:47:59;99749.31;;;9.84;75.23
75747;BME280;70632;52.232;21.038;2024-03-22T18:50:25;99750.28;;;9.83;74.67
75747;BME280;70632;52.232;21.038;2024-03-22T18:52:51;99740.16;;;9.85;73.80
75747;BME280;70632;52.232;21.038;2024-03-22T18:55:17;99739.31;;;9.85;73.80
75747;BME280;70632;52.232;21.038;2024-03-22T18:57:43;99740.75;;;9.89;74.06
75747;BME280;70632;52.232;21.038;2024-03-22T19:00:10;99739.03;;;9.88;73.38
75747;BME280;70632;52.232;21.038;2024-03-22T19:02:36;99729.94;;;9.89;74.36
75747;BME280;70632;52.232;21.038;2024-03-22T19:05:04;99723.38;;;9.92;73.56
75747;BME280;70632;52.232;21.038;2024-03-22T19:07:30;99721.09;;;9.87;73.81
75747;BME280;70632;52.232;21.038;2024-03-22T19:09:56;99723.78;;;9.87;74.25
75747;BME280;70632;52.232;21.038;2024-03-22T19:12:22;99716.53;;;9.87;73.78
75747;BME280;70632;52.232;21.038;2024-03-22T19:14:49;99718.09;;;9.90;73.61
75747;BME280;70632;52.232;21.038;2024-03-22T19:17:14;99710.84;;;9.91;73.56
75747;BME280;70632;52.232;21.038;2024-03-22T19:19:42;99708.28;;;9.89;73.70
75747;BME280;70632;52.232;21.038;2024-03-22T19:22:08;99699.44;;;9.87;73.44
75747;BME280;70632;52.232;21.038;2024-03-22T19:24:35;99708.88;;;9.93;72.96
75747;BME280;70632;52.232;21.038;2024-03-22T19:27:01;99721.22;;;9.85;73.32
75747;BME280;70632;52.232;21.038;2024-03-22T19:29:27;99711.09;;;9.87;73.17
75747;BME280;70632;52.232;21.038;2024-03-22T19:31:52;99716.13;;;9.92;72.70
75747;BME280;70632;52.232;21.038;2024-03-22T19:34:18;99710.56;;;9.94;72.03
75747;BME280;70632;52.232;21.038;2024-03-22T19:36:44;99721.41;;;9.94;72.63
75747;BME280;70632;52.232;21.038;2024-03-22T19:39:10;99707.06;;;10.03;72.47
75747;BME280;70632;52.232;21.038;2024-03-22T19:41:37;99696.06;;;9.95;71.83
75747;BME280;70632;52.232;21.038;2024-03-22T19:44:04;99697.50;;;9.99;72.41
75747;BME280;70632;52.232;21.038;2024-03-22T19:46:33;99691.19;;;9.98;72.06
75747;BME280;70632;52.232;21.038;2024-03-22T19:49:02;99684.69;;;10.01;71.86
75747;BME280;70632;52.232;21.038;2024-03-22T19:51:28;99687.56;;;10.09;71.04
75747;BME280;70632;52.232;21.038;2024-03-22T19:53:54;99686.38;;;10.02;71.06
75747;BME280;70632;52.232;21.038;2024-03-22T19:56:20;99669.69;;;9.97;71.79
75747;BME280;70632;52.232;21.038;2024-03-22T19:58:46;99675.84;;;9.99;71.22
75747;BME280;70632;52.232;21.038;2024-03-22T20:01:12;99677.28;;;10.03;71.63
75747;BME280;70632;52.232;21.038;2024-03-22T20:03:44;99679.97;;;10.03;71.48
75747;BME280;70632;52.232;21.038;2024-03-22T20:06:10;99671.13;;;10.01;70.87
75747;BME280;70632;52.232;21.038;2024-03-22T20:08:35;99670.97;;;10.02;71.39
75747;BME280;70632;52.232;21.038;2024-03-22T20:11:01;99671.84;;;10.03;71.04
75747;BME280;70632;52.232;21.038;2024-03-22T20:13:27;99672.84;;;10.02;71.49
75747;BME280;70632;52.232;21.038;2024-03-22T20:15:53;99667.88;;;10.07;71.54
75747;BME280;70632;52.232;21.038;2024-03-22T20:18:20;99669.00;;;10.04;71.10
75747;BME280;70632;52.232;21.038;2024-03-22T20:20:46;99667.28;;;10.03;71.55
75747;BME280;70632;52.232;21.038;2024-03-22T20:23:16;99669.16;;;10.03;71.13
75747;BME280;70632;52.232;21.038;2024-03-22T20:25:43;99659.03;;;10.05;71.77
75747;BME280;70632;52.232;21.038;2024-03-22T20:28:09;99657.31;;;10.04;71.54
75747;BME280;70632;52.232;21.038;2024-03-22T20:30:35;99665.56;;;10.02;71.80
75747;BME280;70632;52.232;21.038;2024-03-22T20:33:01;99658.16;;;10.04;71.87
